createdAt,value
2023-12-02T00:00:08.609Z,98698.69
2023-12-02T00:03:14.526Z,98697.22
2023-12-02T00:06:17.669Z,98709.41
2023-12-02T00:09:20.366Z,98688.94
2023-12-02T00:12:23.333Z,98696.38
2023-12-02T00:15:26.062Z,98705.63
2023-12-02T00:18:29.185Z,98696.28
2023-12-02T00:21:32.066Z,98693.91
2023-12-02T00:24:35.051Z,98691.59
2023-12-02T00:27:37.727Z,98703.69
2023-12-02T00:30:40.682Z,98711.41
2023-12-02T00:33:43.428Z,98690.81
2023-12-02T00:36:49.916Z,98711.50
2023-12-02T00:39:52.691Z,98712.56
2023-12-02T00:42:55.610Z,98700.06
2023-12-02T00:45:58.217Z,98686.19
2023-12-02T00:49:01.280Z,98688.16
2023-12-02T00:52:04.255Z,98698.19
2023-12-02T00:55:07.857Z,98707.84
2023-12-02T00:58:10.560Z,98697.63
2023-12-02T01:01:13.509Z,98695.72
2023-12-02T01:04:16.259Z,98681.75
2023-12-02T01:07:19.243Z,98688.38
2023-12-02T01:10:21.950Z,98674.63
2023-12-02T01:13:24.938Z,98660.69
2023-12-02T01:16:27.697Z,98664.72
2023-12-02T01:19:33.209Z,98665.91
2023-12-02T01:22:37.531Z,98673.50
2023-12-02T01:25:40.512Z,98662.81
2023-12-02T01:28:43.204Z,98660.88
2023-12-02T01:31:46.122Z,98661.34
2023-12-02T01:34:48.861Z,98648.34
2023-12-02T01:37:51.970Z,98642.06
2023-12-02T01:40:54.699Z,98639.75
2023-12-02T01:43:57.677Z,98634.13
2023-12-02T01:47:00.652Z,98626.12
2023-12-02T01:50:04.920Z,98622.56
2023-12-02T01:53:07.901Z,98636.25
2023-12-02T01:56:11.818Z,98631.81
2023-12-02T01:59:15.388Z,98630.84
2023-12-02T02:02:18.377Z,98636.84
2023-12-02T02:05:21.441Z,98606.91
2023-12-02T02:08:24.145Z,98621.56
2023-12-02T02:11:27.114Z,98623.28
2023-12-02T02:14:29.767Z,98601.13
2023-12-02T02:17:32.696Z,98610.66
2023-12-02T02:20:35.300Z,98610.91
2023-12-02T02:23:38.262Z,98593.00
2023-12-02T02:26:40.925Z,98595.06
2023-12-02T02:29:43.900Z,98608.28
2023-12-02T02:32:46.636Z,98607.81
2023-12-02T02:35:49.602Z,98609.13
2023-12-02T02:38:52.273Z,98621.41
2023-12-02T02:41:55.970Z,98617.78
2023-12-02T02:44:58.774Z,98605.13
2023-12-02T02:48:01.893Z,98621.00
2023-12-02T02:51:04.736Z,98606.41
2023-12-02T02:54:07.744Z,98594.38
2023-12-02T02:57:10.823Z,98607.09
2023-12-02T03:00:14.387Z,98626.09
2023-12-02T03:03:17.053Z,98597.81
2023-12-02T03:06:20.390Z,98607.88
2023-12-02T03:09:23.110Z,98599.72
2023-12-02T03:12:26.733Z,98592.16
2023-12-02T03:15:29.379Z,98576.13
2023-12-02T03:18:32.536Z,98581.25
2023-12-02T03:21:35.322Z,98577.06
2023-12-02T03:24:38.383Z,98581.25
2023-12-02T03:27:41.484Z,98584.25
2023-12-02T03:30:44.350Z,98582.50
2023-12-02T03:33:46.991Z,98583.16
2023-12-02T03:36:49.869Z,98574.88
2023-12-02T03:39:52.487Z,98582.25
2023-12-02T03:42:55.419Z,98582.81
2023-12-02T03:45:58.043Z,98582.75
2023-12-02T03:49:00.993Z,98593.25
2023-12-02T03:52:03.812Z,98596.44
2023-12-02T03:55:08.485Z,98596.53
2023-12-02T03:58:11.481Z,98583.19
2023-12-02T04:01:15.195Z,98595.75
2023-12-02T04:04:19.295Z,98571.47
2023-12-02T04:07:22.113Z,98588.09
2023-12-02T04:10:25.069Z,98572.03
2023-12-02T04:13:29.484Z,98575.06
2023-12-02T04:16:32.342Z,98574.56
2023-12-02T04:19:34.984Z,98572.59
2023-12-02T04:22:40.183Z,98571.16
2023-12-02T04:25:42.980Z,98578.00
2023-12-02T04:28:45.917Z,98579.09
2023-12-02T04:31:48.562Z,98582.69
2023-12-02T04:34:51.572Z,98592.72
2023-12-02T04:37:54.153Z,98568.28
2023-12-02T04:40:57.075Z,98575.22
2023-12-02T04:43:59.690Z,98584.69
2023-12-02T04:47:02.709Z,98576.53
2023-12-02T04:50:06.302Z,98574.19
2023-12-02T04:53:10.425Z,98562.56
2023-12-02T04:56:13.215Z,98553.25
2023-12-02T04:59:16.131Z,98548.66
2023-12-02T05:02:21.966Z,98546.44
2023-12-02T05:05:24.956Z,98543.91
2023-12-02T05:08:27.584Z,98556.72
2023-12-02T05:11:30.649Z,98558.75
2023-12-02T05:14:33.440Z,98562.66
2023-12-02T05:17:36.876Z,98565.41
2023-12-02T05:20:39.972Z,98553.97
2023-12-02T05:23:43.036Z,98542.66
2023-12-02T05:26:45.678Z,98557.00
2023-12-02T05:29:48.595Z,98523.69
2023-12-02T05:32:52.959Z,98542.00
2023-12-02T05:35:56.105Z,98541.66
2023-12-02T05:38:58.982Z,98554.59
2023-12-02T05:42:02.123Z,98547.50
2023-12-02T05:45:05.876Z,98546.66
2023-12-02T05:48:09.027Z,98547.28
2023-12-02T05:51:13.660Z,98540.91
2023-12-02T05:54:16.774Z,98550.47
2023-12-02T05:57:19.625Z,98562.34
2023-12-02T06:00:22.609Z,98560.19
2023-12-02T06:03:25.851Z,98559.75
2023-12-02T06:06:28.727Z,98560.25
2023-12-02T06:09:31.669Z,98566.50
2023-12-02T06:12:34.664Z,98570.38
2023-12-02T06:15:37.741Z,98574.81
2023-12-02T06:18:40.551Z,98550.50
2023-12-02T06:21:43.559Z,98571.06
2023-12-02T06:24:46.194Z,98566.94
2023-12-02T06:27:49.227Z,98569.78
2023-12-02T06:30:51.960Z,98556.84
2023-12-02T06:33:54.980Z,98569.84
2023-12-02T06:36:57.638Z,98572.16
2023-12-02T06:40:00.783Z,98542.34
2023-12-02T06:43:03.427Z,98558.72
2023-12-02T06:46:07.275Z,98551.91
2023-12-02T06:49:09.981Z,98554.75
2023-12-02T06:52:12.952Z,98562.94
2023-12-02T06:58:21.530Z,98560.16
2023-12-02T07:01:29.756Z,98558.19
2023-12-02T07:04:33.448Z,98564.66
2023-12-02T07:07:36.193Z,98558.44
2023-12-02T07:10:39.339Z,98554.28
2023-12-02T07:13:42.113Z,98545.78
2023-12-02T07:16:45.154Z,98564.88
2023-12-02T07:19:47.876Z,98554.09
2023-12-02T07:22:51.061Z,98543.38
2023-12-02T07:25:53.876Z,98553.97
2023-12-02T07:28:56.828Z,98554.69
2023-12-02T07:31:59.455Z,98550.16
2023-12-02T07:35:02.623Z,98563.13
2023-12-02T07:38:05.332Z,98566.25
2023-12-02T07:41:11.566Z,98586.41
2023-12-02T07:44:14.330Z,98582.81
2023-12-02T07:47:17.409Z,98571.38
2023-12-02T07:50:20.834Z,98575.78
2023-12-02T07:53:23.782Z,98574.84
2023-12-02T07:56:26.492Z,98563.47
2023-12-02T07:59:29.558Z,98562.88
2023-12-02T08:02:32.543Z,98582.09
2023-12-02T08:08:41.119Z,98568.72
2023-12-02T08:11:44.150Z,98561.84
2023-12-02T08:14:46.822Z,98558.09
2023-12-02T08:17:50.371Z,98573.28
2023-12-02T08:20:53.293Z,98564.81
2023-12-02T08:23:56.322Z,98536.84
2023-12-02T08:26:59.746Z,98534.59
2023-12-02T08:30:04.776Z,98559.06
2023-12-02T08:33:07.535Z,98534.56
2023-12-02T08:36:10.904Z,98564.91
2023-12-02T08:39:14.479Z,98545.87
2023-12-02T08:42:17.507Z,98567.25
2023-12-02T08:45:20.154Z,98570.38
2023-12-02T08:48:23.135Z,98581.66
2023-12-02T08:51:25.955Z,98582.44
2023-12-02T08:54:28.893Z,98584.78
2023-12-02T08:57:31.556Z,98572.69
2023-12-02T09:00:34.500Z,98575.81
2023-12-02T09:03:37.232Z,98583.59
2023-12-02T09:06:41.801Z,98561.84
2023-12-02T09:09:44.755Z,98573.88
2023-12-02T09:12:47.694Z,98560.63
2023-12-02T09:15:50.735Z,98584.00
2023-12-02T09:18:53.802Z,98581.25
2023-12-02T09:21:56.504Z,98587.47
2023-12-02T09:24:59.473Z,98590.59
2023-12-02T09:28:11.585Z,98559.09
2023-12-02T09:31:15.004Z,98570.78
2023-12-02T09:34:43.964Z,98536.13
2023-12-02T09:37:55.162Z,98556.31
2023-12-02T09:41:14.008Z,98572.62
2023-12-02T09:44:47.016Z,98563.97
2023-12-02T09:48:06.837Z,98555.84
2023-12-02T09:51:40.831Z,98556.16
2023-12-02T09:54:53.616Z,98560.03
2023-12-02T09:58:08.675Z,98545.25
2023-12-02T10:01:44.039Z,98556.12
2023-12-02T10:05:11.544Z,98551.44
2023-12-02T10:08:26.476Z,98541.62
2023-12-02T10:12:01.545Z,98540.03
2023-12-02T10:15:07.193Z,98530.28
2023-12-02T10:18:14.313Z,98525.56
2023-12-02T10:21:20.735Z,98523.91
2023-12-02T10:24:35.273Z,98524.56
2023-12-02T10:27:40.469Z,98526.81
2023-12-02T10:30:50.598Z,98527.97
2023-12-02T10:34:02.070Z,98512.72
2023-12-02T10:37:06.854Z,98509.88
2023-12-02T10:40:12.716Z,98511.03
2023-12-02T10:43:31.522Z,98523.09
2023-12-02T10:46:35.417Z,98522.28
2023-12-02T10:49:39.991Z,98517.09
2023-12-02T10:53:17.888Z,98495.09
2023-12-02T10:56:25.001Z,98498.09
2023-12-02T10:59:34.336Z,98492.56
2023-12-02T11:02:47.751Z,98480.78
2023-12-02T11:05:50.289Z,98461.16
2023-12-02T11:09:03.134Z,98476.94
2023-12-02T11:12:31.996Z,98472.41
2023-12-02T11:15:51.069Z,98480.41
2023-12-02T11:19:07.912Z,98473.97
2023-12-02T11:22:41.425Z,98468.06
2023-12-02T11:25:52.732Z,98462.50
2023-12-02T11:29:18.584Z,98461.31
2023-12-02T11:33:14.511Z,98470.88
2023-12-02T11:36:38.818Z,98459.38
2023-12-02T11:39:54.841Z,98453.66
2023-12-02T11:43:20.905Z,98443.91
2023-12-02T11:46:27.001Z,98449.97
2023-12-02T11:49:48.675Z,98438.47
2023-12-02T11:53:04.624Z,98426.28
2023-12-02T11:56:12.156Z,98422.03
2023-12-02T11:59:17.669Z,98433.81
2023-12-02T12:02:48.508Z,98438.91
2023-12-02T12:06:13.885Z,98434.38
2023-12-02T12:09:41.938Z,98440.34
2023-12-02T12:12:48.854Z,98415.91
2023-12-02T12:15:51.505Z,98421.94
2023-12-02T12:18:54.472Z,98415.19
2023-12-02T12:21:57.786Z,98419.91
2023-12-02T12:25:00.743Z,98407.13
2023-12-02T12:28:04.716Z,98426.97
2023-12-02T12:31:11.281Z,98423.87
2023-12-02T12:34:14.803Z,98418.53
2023-12-02T12:37:18.201Z,98417.69
2023-12-02T12:40:21.142Z,98409.22
2023-12-02T12:43:24.524Z,98418.72
2023-12-02T12:46:29.689Z,98422.69
2023-12-02T12:49:34.809Z,98411.91
2023-12-02T12:52:43.199Z,98436.91
2023-12-02T12:55:52.255Z,98424.53
2023-12-02T12:59:00.849Z,98421.50
2023-12-02T13:02:26.780Z,98422.75
2023-12-02T13:05:39.664Z,98407.91
2023-12-02T13:09:18.164Z,98411.94
2023-12-02T13:12:25.729Z,98415.37
2023-12-02T13:15:29.794Z,98392.28
2023-12-02T13:18:34.398Z,98396.19
2023-12-02T13:21:39.655Z,98400.59
2023-12-02T13:25:04.121Z,98388.25
2023-12-02T13:28:22.438Z,98389.47
2023-12-02T13:31:27.470Z,98390.56
2023-12-02T13:34:45.516Z,98389.91
2023-12-02T13:38:15.665Z,98403.44
2023-12-02T13:41:48.258Z,98405.12
2023-12-02T13:44:56.557Z,98414.59
2023-12-02T13:48:22.835Z,98411.56
2023-12-02T13:51:30.775Z,98400.37
2023-12-02T13:54:46.198Z,98406.56
2023-12-02T13:58:08.291Z,98396.09
2023-12-02T14:01:29.851Z,98417.16
2023-12-02T14:05:08.176Z,98411.38
2023-12-02T14:08:18.377Z,98408.81
2023-12-02T14:11:51.719Z,98432.47
2023-12-02T14:15:07.829Z,98446.63
2023-12-02T14:18:11.563Z,98463.91
2023-12-02T14:21:39.640Z,98448.03
2023-12-02T14:25:04.604Z,98467.53
2023-12-02T14:28:28.697Z,98481.25
2023-12-02T14:31:46.673Z,98490.59
2023-12-02T14:35:05.878Z,98546.78
2023-12-02T14:38:34.438Z,98663.69
2023-12-02T14:42:09.585Z,98702.66
2023-12-02T14:45:13.528Z,98751.94
2023-12-02T14:48:17.735Z,98729.53
2023-12-02T14:51:21.139Z,98759.81
2023-12-02T14:54:25.806Z,98758.53
2023-12-02T14:57:30.624Z,98712.06
2023-12-02T15:00:34.877Z,98718.28
2023-12-02T15:03:38.512Z,98717.09
2023-12-02T15:06:41.965Z,98736.06
2023-12-02T15:09:45.019Z,98746.19
2023-12-02T15:12:53.312Z,98777.78
2023-12-02T15:15:57.705Z,98782.88
2023-12-02T15:19:11.691Z,98787.50
2023-12-02T15:22:17.616Z,98782.53
2023-12-02T15:25:20.577Z,98744.34
2023-12-02T15:28:44.258Z,98764.09
2023-12-02T15:31:47.601Z,98771.63
2023-12-02T15:34:50.641Z,98765.16
2023-12-02T15:37:56.254Z,98788.87
2023-12-02T15:41:00.046Z,98812.09
2023-12-02T15:44:02.998Z,98800.19
2023-12-02T15:47:06.189Z,98823.75
2023-12-02T15:50:09.531Z,98831.62
2023-12-02T15:53:12.797Z,98821.50
2023-12-02T15:56:18.120Z,98829.44
2023-12-02T15:59:23.872Z,98807.94
2023-12-02T16:02:26.613Z,98804.00
2023-12-02T16:05:30.980Z,98799.53
2023-12-02T16:08:34.453Z,98783.19
2023-12-02T16:11:37.797Z,98787.13
2023-12-02T16:14:47.481Z,98767.16
2023-12-02T16:17:50.518Z,98773.50
2023-12-02T16:20:53.704Z,98766.41
2023-12-02T16:23:56.771Z,98785.56
2023-12-02T16:26:59.983Z,98795.34
2023-12-02T16:30:04.234Z,98799.47
2023-12-02T16:33:07.156Z,98791.50
2023-12-02T16:36:14.358Z,98765.31
2023-12-02T16:39:18.644Z,98771.72
2023-12-02T16:42:21.714Z,98750.19
2023-12-02T16:45:26.496Z,98733.97
2023-12-02T16:48:30.309Z,98735.16
2023-12-02T16:51:34.017Z,98746.91
2023-12-02T16:54:36.948Z,98734.91
2023-12-02T16:57:41.550Z,98746.31
2023-12-02T17:00:46.509Z,98717.91
2023-12-02T17:03:49.256Z,98745.00
2023-12-02T17:06:53.561Z,98751.59
2023-12-02T17:09:56.367Z,98784.38
2023-12-02T17:12:59.370Z,98848.81
2023-12-02T17:16:02.208Z,98886.22
2023-12-02T17:19:10.130Z,98921.75
2023-12-02T17:22:17.529Z,98935.28
2023-12-02T17:25:50.429Z,98922.19
2023-12-02T17:28:53.252Z,98947.69
2023-12-02T17:31:57.591Z,98973.13
2023-12-02T17:35:00.579Z,98983.00
2023-12-02T17:38:05.194Z,98943.47
2023-12-02T17:41:08.339Z,98969.12
2023-12-02T17:44:11.695Z,98972.22
2023-12-02T17:47:14.605Z,98984.22
2023-12-02T17:50:18.142Z,98964.84
2023-12-02T17:53:23.319Z,98981.44
2023-12-02T17:56:26.954Z,98984.94
2023-12-02T17:59:29.966Z,98990.22
2023-12-02T18:02:33.335Z,99029.94
2023-12-02T18:05:36.599Z,99024.97
2023-12-02T18:08:39.616Z,99016.38
2023-12-02T18:11:42.900Z,99049.34
2023-12-02T18:14:45.733Z,99071.16
2023-12-02T18:17:48.914Z,99096.13
2023-12-02T18:20:53.672Z,99079.31
2023-12-02T18:23:58.903Z,99179.06
2023-12-02T18:27:01.732Z,99254.22
2023-12-02T18:30:05.150Z,99256.13
2023-12-02T18:33:08.367Z,99287.81
2023-12-02T18:36:11.833Z,99292.75
2023-12-02T18:39:16.500Z,99283.44
2023-12-02T18:42:19.532Z,99277.47
2023-12-02T18:45:22.308Z,99268.03
2023-12-02T18:48:25.395Z,99306.78
2023-12-02T18:51:29.679Z,99284.13
2023-12-02T18:54:33.279Z,99267.69
2023-12-02T18:57:36.439Z,99231.94
2023-12-02T19:00:39.684Z,99279.41
2023-12-02T19:03:42.751Z,99274.41
2023-12-02T19:06:45.787Z,99274.25
2023-12-02T19:09:48.560Z,99295.75
2023-12-02T19:12:51.629Z,99289.09
2023-12-02T19:15:54.224Z,99287.25
2023-12-02T19:18:59.142Z,99311.91
2023-12-02T19:22:02.108Z,99294.72
2023-12-02T19:25:05.617Z,99285.91
2023-12-02T19:28:08.521Z,99268.94
2023-12-02T19:31:11.864Z,99291.25
2023-12-02T19:34:14.621Z,99295.94
2023-12-02T19:37:17.733Z,99299.47
2023-12-02T19:40:20.443Z,99310.59
2023-12-02T19:43:25.063Z,99334.47
2023-12-02T19:46:28.347Z,99352.94
2023-12-02T19:49:31.832Z,99332.97
2023-12-02T19:52:34.736Z,99348.16
2023-12-02T19:55:38.575Z,99334.88
2023-12-02T19:58:41.211Z,99365.44
2023-12-02T20:01:44.329Z,99357.94
2023-12-02T20:04:47.433Z,99376.84
2023-12-02T20:07:50.377Z,99377.81
2023-12-02T20:10:53.471Z,99407.06
2023-12-02T20:13:57.556Z,99415.41
2023-12-02T20:17:00.600Z,99445.09
2023-12-02T20:20:05.307Z,99477.94
2023-12-02T20:23:08.359Z,99460.41
2023-12-02T20:26:11.293Z,99481.69
2023-12-02T20:29:14.286Z,99478.34
2023-12-02T20:32:16.968Z,99465.41
2023-12-02T20:35:20.041Z,99483.44
2023-12-02T20:38:22.739Z,99483.16
2023-12-02T20:41:26.221Z,99498.63
2023-12-02T20:44:28.976Z,99480.88
2023-12-02T20:47:32.411Z,99515.34
2023-12-02T20:50:35.079Z,99532.12
2023-12-02T20:53:39.219Z,99525.91
2023-12-02T20:56:42.162Z,99544.41
2023-12-02T20:59:45.114Z,99547.06
2023-12-02T21:02:47.868Z,99540.09
2023-12-02T21:05:50.917Z,99542.28
2023-12-02T21:08:53.659Z,99569.63
2023-12-02T21:11:56.577Z,99573.97
2023-12-02T21:14:59.277Z,99578.47
2023-12-02T21:18:03.981Z,99601.94
2023-12-02T21:21:06.973Z,99614.09
2023-12-02T21:24:11.040Z,99639.00
2023-12-02T21:27:15.136Z,99644.09
2023-12-02T21:30:31.742Z,99654.41
2023-12-02T21:33:36.428Z,99658.94
2023-12-02T21:36:39.631Z,99674.75
2023-12-02T21:39:43.100Z,99699.75
2023-12-02T21:42:50.263Z,99705.00
2023-12-02T21:45:53.277Z,99698.66
2023-12-02T21:49:01.314Z,99699.31
2023-12-02T21:52:04.693Z,99713.28
2023-12-02T21:55:16.272Z,99739.03
2023-12-02T21:58:19.392Z,99715.66
2023-12-02T22:01:22.356Z,99736.09
2023-12-02T22:04:30.098Z,99748.09
2023-12-02T22:07:34.409Z,99744.59
2023-12-02T22:10:37.318Z,99741.66
2023-12-02T22:13:41.987Z,99725.66
2023-12-02T22:16:45.803Z,99738.91
2023-12-02T22:19:49.785Z,99748.16
2023-12-02T22:22:56.174Z,99753.75
2023-12-02T22:25:58.808Z,99754.41
2023-12-02T22:29:08.984Z,99770.06
2023-12-02T22:32:29.714Z,99772.91
2023-12-02T22:36:10.824Z,99800.34
2023-12-02T22:39:34.733Z,99790.81
2023-12-02T22:42:37.779Z,99783.09
2023-12-02T22:45:41.787Z,99801.31
2023-12-02T22:48:47.031Z,99806.25
2023-12-02T22:51:50.757Z,99793.72
2023-12-02T22:54:53.806Z,99769.97
2023-12-02T22:57:56.469Z,99803.75
2023-12-02T23:01:01.625Z,99812.28
2023-12-02T23:04:52.044Z,99830.69
2023-12-02T23:07:56.991Z,99860.66
2023-12-02T23:10:59.998Z,99864.78
2023-12-02T23:14:05.082Z,99849.84
2023-12-02T23:17:13.634Z,99813.09
2023-12-02T23:20:30.946Z,99833.97
2023-12-02T23:23:33.759Z,99824.34
2023-12-02T23:26:36.758Z,99842.91
2023-12-02T23:29:39.384Z,99853.00
2023-12-02T23:32:42.511Z,99834.31
2023-12-02T23:35:45.218Z,99856.81
2023-12-02T23:38:50.326Z,99856.50
2023-12-02T23:41:58.436Z,99864.87
2023-12-02T23:45:01.352Z,99867.72
2023-12-02T23:48:04.888Z,99862.94
2023-12-02T23:51:09.092Z,99874.44
2023-12-02T23:54:11.802Z,99863.81
2023-12-02T23:57:15.180Z,99883.50
